createdAt,value
2017-06-19T00:00:58.325Z,2.90
2017-06-19T00:03:31.036Z,3.20
2017-06-19T00:06:03.951Z,3.10
2017-06-19T00:08:36.855Z,3.80
2017-06-19T00:11:09.760Z,3.10
2017-06-19T00:13:42.667Z,3.37
2017-06-19T00:16:15.435Z,3.80
2017-06-19T00:18:48.300Z,2.97
2017-06-19T00:21:27.365Z,3.33
2017-06-19T00:24:00.987Z,3.50
2017-06-19T00:26:33.942Z,3.63
2017-06-19T00:29:08.951Z,4.17
2017-06-19T00:31:41.732Z,3.80
2017-06-19T00:34:14.675Z,3.67
2017-06-19T00:36:47.514Z,3.90
2017-06-19T00:39:20.811Z,3.50
2017-06-19T00:41:53.345Z,3.50
2017-06-19T00:44:26.407Z,3.63
2017-06-19T00:46:59.407Z,3.80
2017-06-19T00:49:32.631Z,3.17
2017-06-19T00:52:05.527Z,3.40
2017-06-19T00:54:38.371Z,4.00
2017-06-19T00:57:11.315Z,3.83
2017-06-19T00:59:44.353Z,2.97
2017-06-19T01:02:17.209Z,3.83
2017-06-19T01:04:50.239Z,3.63
2017-06-19T01:07:23.015Z,3.03
2017-06-19T01:09:55.939Z,3.80
2017-06-19T01:12:28.863Z,3.47
2017-06-19T01:15:01.714Z,3.50
2017-06-19T01:17:34.758Z,3.70
2017-06-19T01:20:07.479Z,3.53
2017-06-19T01:22:40.272Z,3.70
2017-06-19T01:25:13.190Z,4.03
2017-06-19T01:27:45.395Z,3.20
2017-06-19T01:30:18.367Z,3.50
2017-06-19T01:32:51.073Z,3.87
2017-06-19T01:35:23.924Z,3.27
2017-06-19T01:37:56.807Z,3.10
2017-06-19T01:40:29.648Z,3.40
2017-06-19T01:43:02.603Z,3.90
2017-06-19T01:45:35.452Z,3.30
2017-06-19T01:48:08.316Z,3.40
2017-06-19T01:50:40.643Z,3.57
2017-06-19T01:53:13.619Z,3.40
2017-06-19T01:55:46.336Z,4.00
2017-06-19T01:58:19.375Z,3.00
2017-06-19T02:00:52.376Z,4.10
2017-06-19T02:03:25.071Z,3.80
2017-06-19T02:05:57.958Z,3.43
2017-06-19T02:08:30.644Z,3.33
2017-06-19T02:11:03.808Z,3.87
2017-06-19T02:13:36.707Z,3.93
2017-06-19T02:16:09.560Z,3.00
2017-06-19T02:18:42.222Z,4.23
2017-06-19T02:21:14.887Z,3.07
2017-06-19T02:23:47.799Z,3.60
2017-06-19T02:26:20.667Z,3.83
2017-06-19T02:28:53.708Z,2.80
2017-06-19T02:31:26.577Z,3.70
2017-06-19T02:33:59.347Z,3.37
2017-06-19T02:36:32.208Z,4.03
2017-06-19T02:39:05.268Z,3.30
2017-06-19T02:41:38.143Z,3.10
2017-06-19T02:44:10.927Z,3.40
2017-06-19T02:46:43.872Z,3.40
2017-06-19T02:49:16.771Z,2.70
2017-06-19T02:51:49.823Z,3.93
2017-06-19T02:54:22.947Z,3.80
2017-06-19T02:56:55.703Z,3.43
2017-06-19T02:59:28.435Z,3.73
2017-06-19T03:02:01.535Z,3.30
2017-06-19T03:04:34.443Z,3.80
2017-06-19T03:07:07.639Z,3.50
2017-06-19T03:09:40.355Z,3.40
2017-06-19T03:12:12.819Z,3.47
2017-06-19T03:14:45.579Z,4.20
2017-06-19T03:17:18.308Z,3.60
2017-06-19T03:19:51.383Z,3.93
2017-06-19T03:22:23.635Z,3.83
2017-06-19T03:24:56.303Z,3.30
2017-06-19T03:27:29.223Z,3.57
2017-06-19T03:30:02.128Z,3.60
2017-06-19T03:32:34.935Z,3.97
2017-06-19T03:35:07.764Z,3.93
2017-06-19T03:37:40.591Z,3.73
2017-06-19T03:40:13.539Z,3.77
2017-06-19T03:42:46.482Z,3.60
2017-06-19T03:45:19.379Z,3.70
2017-06-19T03:47:52.223Z,3.40
2017-06-19T03:50:25.283Z,3.67
2017-06-19T03:52:58.343Z,3.57
2017-06-19T03:55:31.337Z,3.73
2017-06-19T03:58:04.307Z,3.43
2017-06-19T04:00:36.989Z,3.77
2017-06-19T04:03:09.831Z,3.63
2017-06-19T04:05:42.751Z,3.87
2017-06-19T04:08:15.435Z,4.20
2017-06-19T04:10:45.427Z,3.33
2017-06-19T04:13:18.495Z,3.63
2017-06-19T04:15:48.531Z,3.50
2017-06-19T04:18:21.141Z,3.60
2017-06-19T04:20:54.151Z,3.83
2017-06-19T04:23:27.132Z,3.90
2017-06-19T04:25:59.748Z,3.50
2017-06-19T04:28:32.768Z,3.67
2017-06-19T04:31:05.704Z,4.00
2017-06-19T04:33:38.899Z,3.47
2017-06-19T04:36:11.875Z,3.40
2017-06-19T04:38:44.997Z,4.00
2017-06-19T04:41:17.763Z,3.90
2017-06-19T04:43:51.396Z,3.70
2017-06-19T04:46:24.338Z,4.10
2017-06-19T04:48:57.013Z,3.83
2017-06-19T04:51:30.003Z,4.20
2017-06-19T04:54:02.939Z,3.57
2017-06-19T04:56:35.943Z,3.87
2017-06-19T04:59:08.872Z,3.90
2017-06-19T05:01:42.804Z,3.90
2017-06-19T05:04:15.563Z,4.27
2017-06-19T05:06:48.557Z,5.00
2017-06-19T05:09:21.531Z,3.80
2017-06-19T05:11:54.702Z,3.83
2017-06-19T05:14:27.688Z,3.73
2017-06-19T05:17:00.618Z,4.43
2017-06-19T05:19:33.267Z,4.17
2017-06-19T05:22:08.599Z,4.10
2017-06-19T05:24:41.715Z,4.30
2017-06-19T05:27:14.857Z,3.80
2017-06-19T05:29:47.727Z,3.50
2017-06-19T05:32:20.506Z,3.73
2017-06-19T05:34:53.660Z,3.90
2017-06-19T05:37:26.323Z,4.00
2017-06-19T05:39:59.192Z,4.10
2017-06-19T05:42:31.960Z,3.50
2017-06-19T05:45:04.744Z,3.80
2017-06-19T05:47:37.739Z,3.57
2017-06-19T05:50:10.417Z,3.30
2017-06-19T05:52:43.481Z,3.17
2017-06-19T05:55:16.499Z,2.80
2017-06-19T05:57:49.521Z,2.97
2017-06-19T06:00:22.501Z,2.97
2017-06-19T06:02:55.659Z,2.87
2017-06-19T06:05:28.784Z,2.37
2017-06-19T06:08:01.899Z,2.80
2017-06-19T06:10:34.726Z,3.23
2017-06-19T06:13:07.547Z,2.90
2017-06-19T06:15:40.487Z,3.37
2017-06-19T06:18:13.353Z,3.10
2017-06-19T06:20:46.175Z,2.90
2017-06-19T06:23:19.188Z,2.43
2017-06-19T06:25:52.215Z,2.53
2017-06-19T06:28:25.355Z,2.80
2017-06-19T06:30:58.536Z,2.30
2017-06-19T06:33:31.419Z,2.67
2017-06-19T06:36:04.496Z,2.87
2017-06-19T06:38:37.483Z,2.73
2017-06-19T06:41:10.635Z,2.90
2017-06-19T06:43:43.694Z,3.43
2017-06-19T06:46:16.479Z,2.20
2017-06-19T06:48:49.263Z,2.20
2017-06-19T06:51:22.309Z,2.93
2017-06-19T06:53:55.063Z,2.57
2017-06-19T06:56:25.047Z,2.40
2017-06-19T06:58:57.831Z,2.57
2017-06-19T07:01:31.287Z,2.93
2017-06-19T07:04:03.592Z,2.00
2017-06-19T07:06:36.406Z,2.77
2017-06-19T07:09:09.279Z,2.20
2017-06-19T07:11:42.091Z,2.47
2017-06-19T07:14:12.031Z,2.33
2017-06-19T07:16:44.874Z,2.80
2017-06-19T07:19:17.823Z,2.07
2017-06-19T07:21:50.768Z,2.50
2017-06-19T07:24:23.738Z,1.73
2017-06-19T07:26:57.280Z,1.80
2017-06-19T07:29:30.126Z,2.30
2017-06-19T07:32:03.082Z,2.07
2017-06-19T07:34:36.206Z,1.97
2017-06-19T07:37:09.344Z,2.00
2017-06-19T07:39:42.272Z,1.53
2017-06-19T07:42:12.092Z,2.00
2017-06-19T07:44:44.874Z,1.70
2017-06-19T07:47:17.730Z,1.80
2017-06-19T07:49:50.407Z,1.83
2017-06-19T07:52:23.163Z,1.50
2017-06-19T07:54:55.900Z,1.40
2017-06-19T07:57:28.580Z,1.90
2017-06-19T08:00:00.763Z,1.83
2017-06-19T08:02:33.654Z,2.10
2017-06-19T08:05:06.646Z,1.50
2017-06-19T08:07:39.500Z,1.67
2017-06-19T08:10:12.248Z,2.23
2017-06-19T08:12:45.031Z,1.67
2017-06-19T08:15:17.748Z,1.47
2017-06-19T08:17:50.721Z,1.80
2017-06-19T08:20:23.491Z,1.87
2017-06-19T08:22:56.689Z,1.63
2017-06-19T08:25:29.815Z,1.70
2017-06-19T08:28:02.534Z,1.57
2017-06-19T08:30:39.485Z,2.07
2017-06-19T08:33:12.171Z,2.13
2017-06-19T08:35:45.179Z,2.10
2017-06-19T08:38:17.675Z,2.00
2017-06-19T08:40:50.331Z,1.80
2017-06-19T08:43:23.347Z,1.67
2017-06-19T08:45:56.091Z,1.80
2017-06-19T08:48:28.775Z,1.73
2017-06-19T08:51:01.579Z,2.00
2017-06-19T08:53:34.432Z,1.90
2017-06-19T08:56:07.024Z,1.73
2017-06-19T08:58:40.218Z,1.90
2017-06-19T09:01:13.052Z,1.33
2017-06-19T09:03:45.786Z,1.60
2017-06-19T09:06:18.607Z,1.80
2017-06-19T09:08:51.615Z,1.60
2017-06-19T09:11:24.720Z,1.40
2017-06-19T09:13:57.619Z,1.73
2017-06-19T09:16:30.323Z,1.70
2017-06-19T09:19:02.955Z,1.73
2017-06-19T09:21:35.851Z,1.33
2017-06-19T09:24:08.796Z,2.00
2017-06-19T09:26:41.579Z,1.70
2017-06-19T09:29:14.627Z,1.63
2017-06-19T09:31:47.775Z,1.77
2017-06-19T09:34:20.621Z,1.70
2017-06-19T09:36:53.519Z,1.80
2017-06-19T09:39:26.475Z,1.50
2017-06-19T09:41:59.195Z,1.60
2017-06-19T09:44:32.115Z,1.43
2017-06-19T09:47:05.243Z,1.03
2017-06-19T09:49:38.195Z,1.13
2017-06-19T09:52:10.831Z,0.90
2017-06-19T09:54:43.595Z,1.03
2017-06-19T09:57:16.587Z,1.43
2017-06-19T09:59:49.672Z,1.50
2017-06-19T10:02:22.435Z,1.30
2017-06-19T10:04:55.370Z,1.23
2017-06-19T10:07:28.424Z,1.20
2017-06-19T10:10:01.307Z,1.43
2017-06-19T10:12:34.087Z,1.20
2017-06-19T10:15:06.964Z,1.40
2017-06-19T10:17:40.103Z,1.43
2017-06-19T10:20:13.064Z,1.37
2017-06-19T10:22:46.131Z,1.80
2017-06-19T10:25:16.250Z,1.33
2017-06-19T10:27:49.399Z,1.60
2017-06-19T10:30:22.347Z,1.63
2017-06-19T10:32:55.431Z,1.63
2017-06-19T10:35:28.243Z,2.13
2017-06-19T10:38:01.107Z,1.60
2017-06-19T10:40:34.083Z,1.93
2017-06-19T10:43:07.023Z,1.60
2017-06-19T10:45:39.931Z,1.43
2017-06-19T10:48:12.671Z,1.60
2017-06-19T10:50:45.405Z,2.20
2017-06-19T10:53:12.447Z,1.70
2017-06-19T10:55:44.995Z,1.60
2017-06-19T10:58:17.815Z,2.00
2017-06-19T11:00:50.759Z,1.73
2017-06-19T11:03:23.599Z,1.50
2017-06-19T11:05:56.219Z,2.00
2017-06-19T11:08:29.067Z,1.50
2017-06-19T11:11:02.035Z,1.43
2017-06-19T11:13:34.687Z,1.80
2017-06-19T11:16:07.555Z,2.00
2017-06-19T11:18:40.551Z,1.60
2017-06-19T11:21:13.667Z,1.50
2017-06-19T11:23:46.781Z,2.47
2017-06-19T11:26:19.677Z,1.60
2017-06-19T11:28:52.466Z,1.90
2017-06-19T11:31:25.439Z,1.53
2017-06-19T11:33:58.429Z,1.60
2017-06-19T11:36:31.275Z,1.77
2017-06-19T11:39:04.311Z,1.70
2017-06-19T11:41:37.119Z,2.00
2017-06-19T11:44:10.032Z,1.80
2017-06-19T11:46:43.035Z,1.80
2017-06-19T11:49:16.027Z,2.03
2017-06-19T11:51:48.752Z,1.93
2017-06-19T11:54:21.539Z,1.90
2017-06-19T11:56:54.171Z,1.87
2017-06-19T11:59:26.989Z,1.40
2017-06-19T12:01:59.843Z,1.43
2017-06-19T12:04:32.471Z,2.10
2017-06-19T12:07:05.752Z,1.70
2017-06-19T12:09:38.754Z,2.07
2017-06-19T12:12:11.560Z,1.87
2017-06-19T12:14:44.443Z,1.73
2017-06-19T12:17:18.811Z,1.77
2017-06-19T12:19:51.635Z,1.90
2017-06-19T12:22:24.778Z,1.50
2017-06-19T12:24:57.457Z,1.50
2017-06-19T12:27:30.215Z,1.20
2017-06-19T12:30:03.038Z,1.67
2017-06-19T12:32:35.988Z,1.67
2017-06-19T12:35:08.779Z,1.33
2017-06-19T12:37:41.763Z,1.70
2017-06-19T12:40:14.678Z,2.40
2017-06-19T12:42:44.708Z,1.50
2017-06-19T12:45:17.443Z,1.77
2017-06-19T12:47:50.627Z,1.40
2017-06-19T12:50:23.490Z,1.57
2017-06-19T12:52:53.528Z,1.30
2017-06-19T12:55:25.849Z,1.40
2017-06-19T12:57:58.791Z,1.53
2017-06-19T13:00:31.515Z,1.13
2017-06-19T13:03:04.226Z,1.37
2017-06-19T13:05:37.379Z,1.47
2017-06-19T13:08:10.121Z,1.40
2017-06-19T13:10:42.839Z,1.07
2017-06-19T13:13:15.747Z,1.30
2017-06-19T13:15:48.706Z,2.13
2017-06-19T13:18:21.615Z,1.63
2017-06-19T13:20:54.423Z,1.40
2017-06-19T13:23:27.354Z,1.30
2017-06-19T13:26:00.140Z,1.37
2017-06-19T13:28:32.996Z,1.43
2017-06-19T13:31:05.796Z,1.53
2017-06-19T13:33:39.148Z,1.60
2017-06-19T13:36:12.827Z,1.30
2017-06-19T13:38:45.550Z,1.70
2017-06-19T13:41:18.144Z,1.70
2017-06-19T13:43:50.975Z,1.60
2017-06-19T13:46:23.801Z,1.60
2017-06-19T13:48:56.652Z,1.80
2017-06-19T13:51:29.460Z,1.30
2017-06-19T13:54:02.231Z,1.30
2017-06-19T13:56:35.047Z,1.73
2017-06-19T13:59:07.840Z,2.10
2017-06-19T14:01:40.598Z,1.50
2017-06-19T14:04:13.375Z,1.93
2017-06-19T14:06:46.323Z,1.30
2017-06-19T14:09:19.145Z,1.27
2017-06-19T14:11:52.075Z,1.30
2017-06-19T14:14:24.775Z,2.00
2017-06-19T14:16:57.692Z,1.87
2017-06-19T14:19:30.469Z,1.43
2017-06-19T14:22:03.585Z,1.47
2017-06-19T14:24:36.771Z,2.10
2017-06-19T14:27:09.759Z,1.87
2017-06-19T14:29:42.500Z,1.63
2017-06-19T14:32:15.319Z,1.77
2017-06-19T14:34:48.447Z,1.43
2017-06-19T14:37:21.491Z,2.93
2017-06-19T14:39:54.649Z,1.40
2017-06-19T14:42:27.075Z,1.50
2017-06-19T14:44:59.844Z,1.50
2017-06-19T14:47:32.883Z,1.67
2017-06-19T14:50:06.063Z,1.40
2017-06-19T14:52:38.927Z,1.83
2017-06-19T14:55:11.855Z,1.77
2017-06-19T14:57:44.587Z,1.97
2017-06-19T15:00:17.487Z,1.50
2017-06-19T15:02:50.595Z,2.03
2017-06-19T15:05:23.523Z,2.00
2017-06-19T15:07:56.401Z,1.83
2017-06-19T15:10:27.475Z,1.77
2017-06-19T15:13:00.403Z,2.23
2017-06-19T15:15:30.552Z,2.40
2017-06-19T15:18:03.163Z,1.70
2017-06-19T15:20:36.261Z,2.03
2017-06-19T15:23:09.151Z,2.20
2017-06-19T15:25:41.871Z,1.70
2017-06-19T15:28:14.967Z,2.10
2017-06-19T15:30:48.234Z,2.17
2017-06-19T15:33:21.101Z,1.83
2017-06-19T15:35:54.167Z,3.00
2017-06-19T15:38:27.067Z,3.93
2017-06-19T15:41:00.107Z,4.70
2017-06-19T15:43:32.834Z,2.90
2017-06-19T15:46:05.770Z,6.20
2017-06-19T15:48:38.687Z,6.37
2017-06-19T15:51:12.039Z,3.50
2017-06-19T15:53:44.862Z,6.67
2017-06-19T15:56:17.719Z,3.70
2017-06-19T15:58:50.743Z,5.20
2017-06-19T16:01:23.752Z,9.23
2017-06-19T16:03:56.570Z,5.70
2017-06-19T16:06:29.667Z,3.43
2017-06-19T16:09:02.402Z,4.77
2017-06-19T16:11:34.719Z,3.20
2017-06-19T16:14:07.067Z,3.10
2017-06-19T16:16:39.995Z,2.50
2017-06-19T16:19:12.748Z,2.37
2017-06-19T16:21:45.819Z,2.67
2017-06-19T16:24:16.064Z,3.40
2017-06-19T16:26:49.167Z,3.15
2017-06-19T16:29:22.263Z,2.90
2017-06-19T16:31:55.181Z,3.80
2017-06-19T16:34:27.998Z,3.07
2017-06-19T16:37:01.239Z,3.30
2017-06-19T16:39:33.989Z,3.47
2017-06-19T16:42:07.077Z,3.13
2017-06-19T16:44:39.944Z,2.70
2017-06-19T16:47:13.943Z,3.17
2017-06-19T16:49:46.883Z,2.90
2017-06-19T16:52:20.019Z,2.80
2017-06-19T16:54:52.256Z,3.40
2017-06-19T16:57:24.976Z,2.67
2017-06-19T16:59:57.683Z,3.10
2017-06-19T17:02:30.715Z,3.00
2017-06-19T17:05:03.740Z,3.53
2017-06-19T17:07:36.903Z,3.87
2017-06-19T17:10:09.687Z,3.87
2017-06-19T17:12:42.608Z,3.43
2017-06-19T17:15:15.464Z,3.10
2017-06-19T17:17:48.375Z,2.87
2017-06-19T17:20:21.367Z,2.53
2017-06-19T17:22:54.000Z,3.77
2017-06-19T17:25:26.875Z,3.47
2017-06-19T17:28:00.027Z,3.33
2017-06-19T17:30:32.685Z,3.90
2017-06-19T17:33:05.682Z,3.80
2017-06-19T17:35:38.755Z,3.03
2017-06-19T17:38:11.743Z,3.27
2017-06-19T17:40:44.543Z,3.93
2017-06-19T17:43:17.529Z,3.37
2017-06-19T17:45:50.415Z,2.90
2017-06-19T17:48:23.426Z,2.97
2017-06-19T17:50:56.356Z,4.10
2017-06-19T17:53:29.391Z,2.73
2017-06-19T17:56:02.231Z,3.13
2017-06-19T17:58:34.972Z,3.17
2017-06-19T18:01:07.826Z,3.70
2017-06-19T18:03:40.613Z,3.67
2017-06-19T18:06:13.439Z,3.30
2017-06-19T18:08:46.407Z,3.57
2017-06-19T18:11:19.370Z,3.20
2017-06-19T18:13:52.111Z,3.70
2017-06-19T18:16:25.131Z,3.40
2017-06-19T18:18:58.099Z,3.50
2017-06-19T18:21:31.106Z,3.63
2017-06-19T18:24:05.914Z,3.43
2017-06-19T18:26:38.965Z,3.53
2017-06-19T18:29:11.860Z,3.23
2017-06-19T18:31:44.651Z,3.17
2017-06-19T18:34:17.573Z,3.90
2017-06-19T18:36:50.207Z,4.17
2017-06-19T18:39:23.132Z,3.90
2017-06-19T18:41:56.099Z,4.00
2017-06-19T18:44:29.420Z,3.83
2017-06-19T18:47:02.339Z,3.50
2017-06-19T18:49:35.129Z,4.00
2017-06-19T18:52:04.891Z,4.13
2017-06-19T18:54:37.458Z,4.37
2017-06-19T18:57:09.920Z,4.77
2017-06-19T18:59:42.930Z,3.97
2017-06-19T19:02:15.678Z,10.00
2017-06-19T19:04:48.854Z,7.03
2017-06-19T19:07:22.386Z,5.63
2017-06-19T19:09:55.381Z,5.30
2017-06-19T19:12:28.564Z,4.57
2017-06-19T19:15:02.168Z,5.10
2017-06-19T19:17:35.640Z,4.77
2017-06-19T19:20:09.543Z,4.30
2017-06-19T19:22:42.309Z,4.77
2017-06-19T19:25:15.465Z,4.90
2017-06-19T19:27:49.214Z,4.83
2017-06-19T19:30:22.507Z,4.90
2017-06-19T19:32:56.555Z,5.20
2017-06-19T19:35:30.349Z,5.80
2017-06-19T19:38:04.026Z,5.00
2017-06-19T19:40:37.640Z,6.30
2017-06-19T19:43:11.210Z,6.57
2017-06-19T19:45:44.994Z,5.87
2017-06-19T19:48:18.496Z,6.10
2017-06-19T19:50:52.387Z,6.43
2017-06-19T19:53:22.444Z,5.47
2017-06-19T19:55:55.821Z,5.23
2017-06-19T19:58:26.820Z,5.00
2017-06-19T20:01:00.463Z,5.80
2017-06-19T20:03:33.407Z,5.53
2017-06-19T20:06:04.173Z,5.90
2017-06-19T20:08:37.820Z,5.60
2017-06-19T20:11:12.230Z,5.43
2017-06-19T20:13:46.074Z,6.37
2017-06-19T20:16:20.150Z,6.33
2017-06-19T20:18:53.902Z,6.40
2017-06-19T20:21:27.280Z,6.57
2017-06-19T20:24:00.869Z,4.87
2017-06-19T20:26:33.736Z,5.00
2017-06-19T20:29:06.630Z,5.23
2017-06-19T20:31:39.582Z,5.23
2017-06-19T20:34:12.363Z,5.33
2017-06-19T20:36:45.038Z,5.60
2017-06-19T20:39:17.761Z,5.00
2017-06-19T20:41:50.543Z,5.60
2017-06-19T20:44:23.178Z,5.37
2017-06-19T20:46:56.199Z,5.37
2017-06-19T20:49:26.276Z,5.90
2017-06-19T20:51:59.220Z,5.40
2017-06-19T20:54:31.962Z,5.00
2017-06-19T20:57:04.879Z,5.70
2017-06-19T20:59:37.103Z,4.67
2017-06-19T21:02:09.840Z,4.80
2017-06-19T21:04:42.851Z,5.20
2017-06-19T21:07:15.535Z,4.77
2017-06-19T21:09:48.272Z,5.70
2017-06-19T21:12:20.959Z,4.97
2017-06-19T21:14:53.838Z,4.80
2017-06-19T21:17:26.759Z,6.77
2017-06-19T21:19:59.351Z,5.63
2017-06-19T21:22:32.072Z,5.20
2017-06-19T21:25:05.027Z,5.77
2017-06-19T21:27:37.984Z,4.90
2017-06-19T21:30:10.988Z,5.37
2017-06-19T21:32:44.022Z,4.57
2017-06-19T21:35:17.089Z,5.20
2017-06-19T21:37:49.564Z,5.07
2017-06-19T21:40:22.415Z,5.00
2017-06-19T21:42:55.325Z,5.03
2017-06-19T21:45:28.200Z,5.50
2017-06-19T21:48:01.156Z,4.77
2017-06-19T21:50:33.943Z,5.10
2017-06-19T21:53:07.098Z,4.97
2017-06-19T21:55:41.306Z,4.90
2017-06-19T21:58:14.243Z,4.40
2017-06-19T22:00:46.875Z,5.40
2017-06-19T22:03:20.084Z,5.10
2017-06-19T22:05:52.800Z,4.30
2017-06-19T22:08:25.031Z,4.30
2017-06-19T22:10:58.040Z,5.17
2017-06-19T22:13:30.949Z,4.20
2017-06-19T22:16:04.147Z,4.73
2017-06-19T22:18:37.427Z,4.80
2017-06-19T22:21:16.021Z,4.87
2017-06-19T22:23:48.876Z,4.83
2017-06-19T22:26:21.811Z,4.70
2017-06-19T22:28:52.040Z,5.27
2017-06-19T22:31:27.389Z,4.60
2017-06-19T22:34:00.413Z,4.40
2017-06-19T22:36:32.057Z,4.40
2017-06-19T22:39:02.886Z,4.90
2017-06-19T22:41:36.076Z,5.20
2017-06-19T22:44:08.888Z,5.00
2017-06-19T22:46:41.414Z,4.63
2017-06-19T22:49:13.269Z,4.70
2017-06-19T22:51:47.235Z,4.30
2017-06-19T22:54:20.227Z,4.70
2017-06-19T22:56:53.123Z,4.40
2017-06-19T22:59:25.995Z,4.30
2017-06-19T23:01:56.038Z,4.73
2017-06-19T23:04:28.766Z,4.10
2017-06-19T23:07:01.546Z,4.70
2017-06-19T23:09:34.407Z,5.17
2017-06-19T23:12:07.319Z,4.90
2017-06-19T23:14:40.415Z,4.53
2017-06-19T23:17:13.183Z,4.57
2017-06-19T23:19:46.188Z,5.20
2017-06-19T23:22:18.928Z,4.90
2017-06-19T23:24:51.754Z,4.47
2017-06-19T23:27:24.874Z,4.50
2017-06-19T23:29:57.631Z,4.30
2017-06-19T23:32:30.710Z,5.20
2017-06-19T23:35:03.479Z,4.83
2017-06-19T23:37:36.435Z,5.30
2017-06-19T23:40:09.519Z,5.10
2017-06-19T23:42:42.411Z,4.97
2017-06-19T23:45:12.735Z,5.10
2017-06-19T23:47:45.235Z,4.23
2017-06-19T23:50:18.165Z,5.20
2017-06-19T23:52:51.171Z,4.53
2017-06-19T23:55:23.991Z,4.40
2017-06-19T23:57:56.812Z,4.93
